Terminal Aerodrome Forecast
Issued by NWS

Home | Current Version | Previous Version | Text Only | Print | Product List | Glossary On
Versions: 1 2 3 4 5 6 7 8 9 10 11 12 13
000
FTAK31 PAFA 181727
TAFATA
TAF
PATA 181727Z 1818/1918 VRB04KT P6SM SCT050 BKN120
     FM182000 10005KT P6SM SCT050 BKN100
     FM190300 04005KT P6SM OVC050=

USA.gov is the U.S. government's official web portal to all federal, state and local government web resources and services.